sensor_id;sensor_type;location;lat;lon;timestamp;P1;durP1;ratioP1;P2;durP2;ratioP2
46230;SDS011;31949;51.404;-0.038;2023-07-24T00:02:01;3.90;;;2.13;;
46230;SDS011;31949;51.404;-0.038;2023-07-24T00:04:30;3.55;;;2.28;;
46230;SDS011;31949;51.404;-0.038;2023-07-24T00:06:59;7.63;;;2.70;;
46230;SDS011;31949;51.404;-0.038;2023-07-24T00:09:27;4.10;;;2.17;;
46230;SDS011;31949;51.404;-0.038;2023-07-24T00:11:54;3.15;;;2.33;;
46230;SDS011;31949;51.404;-0.038;2023-07-24T00:14:21;3.53;;;2.72;;
46230;SDS011;31949;51.404;-0.038;2023-07-24T00:16:48;3.13;;;2.20;;
46230;SDS011;31949;51.404;-0.038;2023-07-24T00:19:19;5.55;;;2.63;;
46230;SDS011;31949;51.404;-0.038;2023-07-24T00:21:46;4.32;;;2.10;;
46230;SDS011;31949;51.404;-0.038;2023-07-24T00:24:13;2.83;;;2.17;;
46230;SDS011;31949;51.404;-0.038;2023-07-24T00:26:42;3.28;;;2.10;;
46230;SDS011;31949;51.404;-0.038;2023-07-24T00:29:11;5.65;;;1.85;;
46230;SDS011;31949;51.404;-0.038;2023-07-24T00:31:39;3.70;;;2.30;;
46230;SDS011;31949;51.404;-0.038;2023-07-24T00:34:08;4.93;;;2.28;;
46230;SDS011;31949;51.404;-0.038;2023-07-24T00:36:38;4.00;;;2.83;;
46230;SDS011;31949;51.404;-0.038;2023-07-24T00:39:05;3.95;;;1.67;;
46230;SDS011;31949;51.404;-0.038;2023-07-24T00:41:33;2.50;;;2.00;;
46230;SDS011;31949;51.404;-0.038;2023-07-24T00:44:00;2.88;;;1.95;;
46230;SDS011;31949;51.404;-0.038;2023-07-24T00:46:28;3.83;;;2.22;;
46230;SDS011;31949;51.404;-0.038;2023-07-24T00:49:00;4.50;;;2.22;;
46230;SDS011;31949;51.404;-0.038;2023-07-24T00:51:31;3.15;;;2.13;;
46230;SDS011;31949;51.404;-0.038;2023-07-24T00:54:00;7.25;;;2.47;;
46230;SDS011;31949;51.404;-0.038;2023-07-24T00:56:29;3.88;;;2.30;;
46230;SDS011;31949;51.404;-0.038;2023-07-24T00:58:59;3.33;;;1.92;;
46230;SDS011;31949;51.404;-0.038;2023-07-24T01:01:26;4.60;;;2.00;;
46230;SDS011;31949;51.404;-0.038;2023-07-24T01:03:56;2.22;;;1.63;;
46230;SDS011;31949;51.404;-0.038;2023-07-24T01:06:24;4.93;;;1.83;;
46230;SDS011;31949;51.404;-0.038;2023-07-24T01:08:55;3.58;;;2.03;;
46230;SDS011;31949;51.404;-0.038;2023-07-24T01:11:27;3.53;;;1.67;;
46230;SDS011;31949;51.404;-0.038;2023-07-24T01:14:08;4.65;;;1.52;;
46230;SDS011;31949;51.404;-0.038;2023-07-24T01:16:41;4.13;;;2.17;;
46230;SDS011;31949;51.404;-0.038;2023-07-24T01:19:16;4.03;;;1.90;;
46230;SDS011;31949;51.404;-0.038;2023-07-24T01:22:08;4.07;;;1.95;;
46230;SDS011;31949;51.404;-0.038;2023-07-24T01:30:17;4.38;;;2.05;;
46230;SDS011;31949;51.404;-0.038;2023-07-24T01:32:47;4.18;;;2.20;;
46230;SDS011;31949;51.404;-0.038;2023-07-24T01:35:16;4.75;;;2.10;;
46230;SDS011;31949;51.404;-0.038;2023-07-24T01:37:43;6.35;;;2.42;;
46230;SDS011;31949;51.404;-0.038;2023-07-24T01:40:13;4.78;;;1.95;;
46230;SDS011;31949;51.404;-0.038;2023-07-24T01:42:41;4.07;;;2.00;;
46230;SDS011;31949;51.404;-0.038;2023-07-24T01:45:09;5.43;;;1.65;;
46230;SDS011;31949;51.404;-0.038;2023-07-24T01:47:38;3.67;;;1.95;;
46230;SDS011;31949;51.404;-0.038;2023-07-24T01:50:06;5.53;;;2.60;;
46230;SDS011;31949;51.404;-0.038;2023-07-24T01:52:34;3.40;;;1.95;;
46230;SDS011;31949;51.404;-0.038;2023-07-24T01:55:01;3.80;;;1.83;;
46230;SDS011;31949;51.404;-0.038;2023-07-24T01:57:28;4.30;;;2.05;;
46230;SDS011;31949;51.404;-0.038;2023-07-24T01:59:56;3.38;;;1.73;;
46230;SDS011;31949;51.404;-0.038;2023-07-24T02:02:23;3.05;;;1.98;;
46230;SDS011;31949;51.404;-0.038;2023-07-24T02:04:50;4.03;;;2.10;;
46230;SDS011;31949;51.404;-0.038;2023-07-24T02:07:18;3.15;;;1.92;;
46230;SDS011;31949;51.404;-0.038;2023-07-24T02:09:45;5.22;;;1.95;;
46230;SDS011;31949;51.404;-0.038;2023-07-24T02:12:15;3.03;;;2.15;;
46230;SDS011;31949;51.404;-0.038;2023-07-24T02:14:42;3.83;;;1.98;;
46230;SDS011;31949;51.404;-0.038;2023-07-24T02:17:10;4.00;;;2.25;;
46230;SDS011;31949;51.404;-0.038;2023-07-24T02:19:37;3.80;;;1.88;;
46230;SDS011;31949;51.404;-0.038;2023-07-24T02:22:05;4.10;;;2.25;;
46230;SDS011;31949;51.404;-0.038;2023-07-24T02:24:34;3.92;;;2.03;;
46230;SDS011;31949;51.404;-0.038;2023-07-24T02:27:02;5.10;;;1.98;;
46230;SDS011;31949;51.404;-0.038;2023-07-24T02:29:32;4.00;;;1.63;;
46230;SDS011;31949;51.404;-0.038;2023-07-24T02:32:00;2.80;;;1.75;;
46230;SDS011;31949;51.404;-0.038;2023-07-24T02:34:27;2.80;;;2.10;;
46230;SDS011;31949;51.404;-0.038;2023-07-24T02:36:55;4.82;;;2.70;;
46230;SDS011;31949;51.404;-0.038;2023-07-24T02:39:22;3.90;;;2.25;;
46230;SDS011;31949;51.404;-0.038;2023-07-24T02:41:49;4.65;;;2.38;;
46230;SDS011;31949;51.404;-0.038;2023-07-24T02:44:17;4.22;;;1.58;;
46230;SDS011;31949;51.404;-0.038;2023-07-24T02:46:44;4.40;;;1.77;;
46230;SDS011;31949;51.404;-0.038;2023-07-24T02:49:11;3.60;;;2.05;;
46230;SDS011;31949;51.404;-0.038;2023-07-24T02:51:38;6.85;;;2.60;;
46230;SDS011;31949;51.404;-0.038;2023-07-24T02:54:05;3.63;;;2.28;;
46230;SDS011;31949;51.404;-0.038;2023-07-24T02:56:33;4.28;;;2.30;;
46230;SDS011;31949;51.404;-0.038;2023-07-24T02:59:00;3.97;;;2.05;;
46230;SDS011;31949;51.404;-0.038;2023-07-24T03:01:27;3.67;;;2.22;;
46230;SDS011;31949;51.404;-0.038;2023-07-24T03:03:55;2.85;;;2.05;;
46230;SDS011;31949;51.404;-0.038;2023-07-24T03:06:22;2.88;;;1.98;;
46230;SDS011;31949;51.404;-0.038;2023-07-24T03:08:49;3.15;;;2.30;;
46230;SDS011;31949;51.404;-0.038;2023-07-24T03:11:16;3.45;;;2.20;;
46230;SDS011;31949;51.404;-0.038;2023-07-24T03:13:43;2.63;;;2.03;;
46230;SDS011;31949;51.404;-0.038;2023-07-24T03:16:11;1.98;;;1.40;;
46230;SDS011;31949;51.404;-0.038;2023-07-24T03:18:38;2.88;;;1.70;;
46230;SDS011;31949;51.404;-0.038;2023-07-24T03:21:06;2.88;;;1.77;;
46230;SDS011;31949;51.404;-0.038;2023-07-24T03:23:33;3.17;;;2.03;;
46230;SDS011;31949;51.404;-0.038;2023-07-24T03:26:00;2.75;;;1.77;;
46230;SDS011;31949;51.404;-0.038;2023-07-24T03:28:28;3.08;;;2.13;;
46230;SDS011;31949;51.404;-0.038;2023-07-24T03:30:56;3.63;;;1.85;;
46230;SDS011;31949;51.404;-0.038;2023-07-24T03:33:24;3.17;;;1.83;;
46230;SDS011;31949;51.404;-0.038;2023-07-24T03:35:51;3.22;;;2.00;;
46230;SDS011;31949;51.404;-0.038;2023-07-24T03:38:18;4.57;;;1.98;;
46230;SDS011;31949;51.404;-0.038;2023-07-24T03:40:45;2.35;;;1.60;;
46230;SDS011;31949;51.404;-0.038;2023-07-24T03:43:14;4.80;;;1.88;;
46230;SDS011;31949;51.404;-0.038;2023-07-24T03:45:41;4.55;;;1.88;;
46230;SDS011;31949;51.404;-0.038;2023-07-24T03:48:09;2.22;;;1.75;;
46230;SDS011;31949;51.404;-0.038;2023-07-24T03:50:36;2.90;;;1.83;;
46230;SDS011;31949;51.404;-0.038;2023-07-24T03:53:03;4.13;;;1.77;;
46230;SDS011;31949;51.404;-0.038;2023-07-24T03:55:30;4.57;;;1.85;;
46230;SDS011;31949;51.404;-0.038;2023-07-24T03:57:58;5.70;;;2.40;;
46230;SDS011;31949;51.404;-0.038;2023-07-24T04:00:25;3.83;;;2.10;;
46230;SDS011;31949;51.404;-0.038;2023-07-24T04:02:52;2.58;;;2.25;;
46230;SDS011;31949;51.404;-0.038;2023-07-24T04:05:20;2.65;;;1.92;;
46230;SDS011;31949;51.404;-0.038;2023-07-24T04:07:47;2.60;;;1.77;;
46230;SDS011;31949;51.404;-0.038;2023-07-24T04:10:14;2.70;;;1.92;;
46230;SDS011;31949;51.404;-0.038;2023-07-24T04:12:42;3.03;;;2.03;;
46230;SDS011;31949;51.404;-0.038;2023-07-24T04:15:09;2.85;;;1.60;;
46230;SDS011;31949;51.404;-0.038;2023-07-24T04:17:37;3.88;;;1.65;;
46230;SDS011;31949;51.404;-0.038;2023-07-24T04:20:06;2.33;;;2.00;;
46230;SDS011;31949;51.404;-0.038;2023-07-24T04:22:34;4.60;;;2.08;;
46230;SDS011;31949;51.404;-0.038;2023-07-24T04:25:02;5.95;;;2.05;;
46230;SDS011;31949;51.404;-0.038;2023-07-24T04:27:29;3.33;;;1.88;;
46230;SDS011;31949;51.404;-0.038;2023-07-24T04:29:57;2.45;;;2.00;;
46230;SDS011;31949;51.404;-0.038;2023-07-24T04:32:25;4.55;;;1.83;;
46230;SDS011;31949;51.404;-0.038;2023-07-24T04:34:54;6.03;;;3.15;;
46230;SDS011;31949;51.404;-0.038;2023-07-24T04:37:21;3.70;;;2.05;;
46230;SDS011;31949;51.404;-0.038;2023-07-24T04:39:48;4.00;;;2.17;;
46230;SDS011;31949;51.404;-0.038;2023-07-24T04:42:16;2.20;;;1.83;;
46230;SDS011;31949;51.404;-0.038;2023-07-24T04:44:43;2.97;;;2.05;;
46230;SDS011;31949;51.404;-0.038;2023-07-24T04:47:10;6.53;;;3.38;;
46230;SDS011;31949;51.404;-0.038;2023-07-24T04:49:38;4.05;;;2.05;;
46230;SDS011;31949;51.404;-0.038;2023-07-24T04:52:05;4.15;;;2.03;;
46230;SDS011;31949;51.404;-0.038;2023-07-24T04:54:33;2.58;;;2.00;;
46230;SDS011;31949;51.404;-0.038;2023-07-24T04:57:00;4.57;;;2.28;;
46230;SDS011;31949;51.404;-0.038;2023-07-24T04:59:28;4.70;;;2.20;;
46230;SDS011;31949;51.404;-0.038;2023-07-24T05:01:55;4.30;;;1.98;;
46230;SDS011;31949;51.404;-0.038;2023-07-24T05:04:22;2.88;;;1.60;;
46230;SDS011;31949;51.404;-0.038;2023-07-24T05:06:50;4.70;;;1.77;;
46230;SDS011;31949;51.404;-0.038;2023-07-24T05:09:17;2.45;;;1.73;;
46230;SDS011;31949;51.404;-0.038;2023-07-24T05:11:44;5.35;;;2.20;;
46230;SDS011;31949;51.404;-0.038;2023-07-24T05:14:11;4.45;;;2.25;;
46230;SDS011;31949;51.404;-0.038;2023-07-24T05:16:39;2.33;;;1.77;;
46230;SDS011;31949;51.404;-0.038;2023-07-24T05:19:06;4.30;;;2.13;;
46230;SDS011;31949;51.404;-0.038;2023-07-24T05:21:33;4.53;;;1.98;;
46230;SDS011;31949;51.404;-0.038;2023-07-24T05:24:00;3.45;;;1.98;;
46230;SDS011;31949;51.404;-0.038;2023-07-24T05:26:28;5.13;;;2.30;;
46230;SDS011;31949;51.404;-0.038;2023-07-24T05:28:55;6.65;;;2.88;;
46230;SDS011;31949;51.404;-0.038;2023-07-24T05:31:23;7.03;;;2.70;;
46230;SDS011;31949;51.404;-0.038;2023-07-24T05:33:50;2.65;;;1.80;;
46230;SDS011;31949;51.404;-0.038;2023-07-24T05:36:17;5.80;;;1.83;;
46230;SDS011;31949;51.404;-0.038;2023-07-24T05:38:45;10.95;;;2.75;;
46230;SDS011;31949;51.404;-0.038;2023-07-24T05:41:12;7.57;;;2.65;;
46230;SDS011;31949;51.404;-0.038;2023-07-24T05:43:39;4.55;;;2.60;;
46230;SDS011;31949;51.404;-0.038;2023-07-24T05:46:06;4.00;;;2.25;;
46230;SDS011;31949;51.404;-0.038;2023-07-24T05:48:34;2.63;;;2.00;;
46230;SDS011;31949;51.404;-0.038;2023-07-24T05:51:01;5.40;;;2.53;;
46230;SDS011;31949;51.404;-0.038;2023-07-24T05:53:28;6.07;;;2.83;;
46230;SDS011;31949;51.404;-0.038;2023-07-24T05:55:58;6.70;;;3.25;;
46230;SDS011;31949;51.404;-0.038;2023-07-24T05:58:27;5.20;;;2.55;;
46230;SDS011;31949;51.404;-0.038;2023-07-24T06:00:55;3.50;;;2.08;;
46230;SDS011;31949;51.404;-0.038;2023-07-24T06:03:23;4.50;;;1.92;;
46230;SDS011;31949;51.404;-0.038;2023-07-24T06:05:51;6.25;;;2.88;;
46230;SDS011;31949;51.404;-0.038;2023-07-24T06:08:20;4.72;;;2.25;;
46230;SDS011;31949;51.404;-0.038;2023-07-24T06:10:47;3.75;;;2.42;;
46230;SDS011;31949;51.404;-0.038;2023-07-24T06:13:16;5.07;;;1.90;;
46230;SDS011;31949;51.404;-0.038;2023-07-24T06:15:44;5.60;;;1.90;;
46230;SDS011;31949;51.404;-0.038;2023-07-24T06:18:11;3.78;;;2.03;;
46230;SDS011;31949;51.404;-0.038;2023-07-24T06:20:38;3.20;;;1.80;;
46230;SDS011;31949;51.404;-0.038;2023-07-24T06:23:05;4.18;;;1.83;;
46230;SDS011;31949;51.404;-0.038;2023-07-24T06:25:33;2.85;;;1.52;;
46230;SDS011;31949;51.404;-0.038;2023-07-24T06:28:00;4.85;;;2.38;;
46230;SDS011;31949;51.404;-0.038;2023-07-24T06:30:28;2.60;;;1.70;;
46230;SDS011;31949;51.404;-0.038;2023-07-24T06:32:55;3.63;;;1.77;;
46230;SDS011;31949;51.404;-0.038;2023-07-24T06:35:22;3.58;;;1.50;;
46230;SDS011;31949;51.404;-0.038;2023-07-24T06:37:50;8.48;;;2.40;;
46230;SDS011;31949;51.404;-0.038;2023-07-24T06:40:17;2.95;;;1.70;;
46230;SDS011;31949;51.404;-0.038;2023-07-24T06:42:45;4.47;;;1.95;;
46230;SDS011;31949;51.404;-0.038;2023-07-24T06:45:12;3.20;;;1.80;;
46230;SDS011;31949;51.404;-0.038;2023-07-24T06:47:40;5.43;;;1.90;;
46230;SDS011;31949;51.404;-0.038;2023-07-24T06:50:07;4.20;;;1.80;;
46230;SDS011;31949;51.404;-0.038;2023-07-24T06:52:35;4.95;;;2.22;;
46230;SDS011;31949;51.404;-0.038;2023-07-24T06:55:02;3.75;;;2.35;;
46230;SDS011;31949;51.404;-0.038;2023-07-24T06:57:30;3.75;;;2.30;;
46230;SDS011;31949;51.404;-0.038;2023-07-24T06:59:57;3.33;;;2.15;;
46230;SDS011;31949;51.404;-0.038;2023-07-24T07:02:24;2.78;;;1.80;;
46230;SDS011;31949;51.404;-0.038;2023-07-24T07:04:52;3.85;;;2.30;;
46230;SDS011;31949;51.404;-0.038;2023-07-24T07:07:19;3.15;;;1.83;;
46230;SDS011;31949;51.404;-0.038;2023-07-24T07:09:46;4.60;;;2.40;;
46230;SDS011;31949;51.404;-0.038;2023-07-24T07:12:13;7.22;;;2.40;;
46230;SDS011;31949;51.404;-0.038;2023-07-24T07:14:41;3.05;;;1.70;;
46230;SDS011;31949;51.404;-0.038;2023-07-24T07:17:08;3.03;;;1.77;;
46230;SDS011;31949;51.404;-0.038;2023-07-24T07:19:35;5.47;;;2.03;;
46230;SDS011;31949;51.404;-0.038;2023-07-24T07:22:02;3.88;;;2.20;;
46230;SDS011;31949;51.404;-0.038;2023-07-24T07:24:30;2.95;;;1.98;;
46230;SDS011;31949;51.404;-0.038;2023-07-24T07:26:57;2.95;;;1.80;;
46230;SDS011;31949;51.404;-0.038;2023-07-24T07:29:24;2.00;;;1.83;;
46230;SDS011;31949;51.404;-0.038;2023-07-24T07:31:52;3.90;;;1.77;;
46230;SDS011;31949;51.404;-0.038;2023-07-24T07:34:19;4.40;;;1.63;;
46230;SDS011;31949;51.404;-0.038;2023-07-24T07:36:46;3.58;;;1.65;;
46230;SDS011;31949;51.404;-0.038;2023-07-24T07:39:13;3.30;;;1.77;;
46230;SDS011;31949;51.404;-0.038;2023-07-24T07:41:41;2.38;;;1.77;;
46230;SDS011;31949;51.404;-0.038;2023-07-24T07:44:08;3.88;;;2.40;;
46230;SDS011;31949;51.404;-0.038;2023-07-24T07:46:35;4.75;;;2.03;;
46230;SDS011;31949;51.404;-0.038;2023-07-24T07:49:02;3.13;;;2.33;;
46230;SDS011;31949;51.404;-0.038;2023-07-24T07:51:30;4.43;;;2.08;;
46230;SDS011;31949;51.404;-0.038;2023-07-24T07:53:57;3.80;;;1.80;;
46230;SDS011;31949;51.404;-0.038;2023-07-24T07:56:24;4.30;;;2.13;;
46230;SDS011;31949;51.404;-0.038;2023-07-24T07:58:51;3.92;;;2.35;;
46230;SDS011;31949;51.404;-0.038;2023-07-24T08:01:18;4.03;;;2.38;;
46230;SDS011;31949;51.404;-0.038;2023-07-24T08:03:46;5.05;;;3.40;;
46230;SDS011;31949;51.404;-0.038;2023-07-24T08:06:13;2.38;;;2.17;;
46230;SDS011;31949;51.404;-0.038;2023-07-24T08:08:40;5.70;;;3.13;;
46230;SDS011;31949;51.404;-0.038;2023-07-24T08:11:07;6.82;;;2.80;;
46230;SDS011;31949;51.404;-0.038;2023-07-24T08:13:35;3.45;;;2.42;;
46230;SDS011;31949;51.404;-0.038;2023-07-24T08:16:02;3.40;;;2.60;;
46230;SDS011;31949;51.404;-0.038;2023-07-24T08:18:30;3.78;;;2.47;;
46230;SDS011;31949;51.404;-0.038;2023-07-24T08:20:58;4.43;;;2.85;;
46230;SDS011;31949;51.404;-0.038;2023-07-24T08:23:25;4.25;;;2.60;;
46230;SDS011;31949;51.404;-0.038;2023-07-24T08:25:53;5.72;;;2.80;;
46230;SDS011;31949;51.404;-0.038;2023-07-24T08:28:21;6.60;;;2.42;;
46230;SDS011;31949;51.404;-0.038;2023-07-24T08:30:58;4.00;;;2.38;;
46230;SDS011;31949;51.404;-0.038;2023-07-24T08:33:29;4.65;;;2.85;;
46230;SDS011;31949;51.404;-0.038;2023-07-24T08:36:00;6.07;;;3.20;;
46230;SDS011;31949;51.404;-0.038;2023-07-24T08:38:31;3.97;;;2.78;;
46230;SDS011;31949;51.404;-0.038;2023-07-24T08:41:08;6.35;;;3.20;;
46230;SDS011;31949;51.404;-0.038;2023-07-24T08:43:40;5.45;;;3.72;;
46230;SDS011;31949;51.404;-0.038;2023-07-24T08:46:09;4.20;;;3.08;;
46230;SDS011;31949;51.404;-0.038;2023-07-24T08:48:40;3.90;;;2.63;;
46230;SDS011;31949;51.404;-0.038;2023-07-24T08:51:09;3.38;;;2.97;;
46230;SDS011;31949;51.404;-0.038;2023-07-24T08:53:39;2.92;;;2.45;;
46230;SDS011;31949;51.404;-0.038;2023-07-24T08:56:10;4.53;;;3.35;;
46230;SDS011;31949;51.404;-0.038;2023-07-24T08:58:41;5.10;;;3.55;;
46230;SDS011;31949;51.404;-0.038;2023-07-24T09:01:09;3.50;;;3.10;;
46230;SDS011;31949;51.404;-0.038;2023-07-24T09:03:36;8.07;;;3.45;;
46230;SDS011;31949;51.404;-0.038;2023-07-24T09:06:04;6.60;;;3.38;;
46230;SDS011;31949;51.404;-0.038;2023-07-24T09:08:35;1.70;;;1.10;;
46230;SDS011;31949;51.404;-0.038;2023-07-24T09:11:04;0.98;;;0.88;;
46230;SDS011;31949;51.404;-0.038;2023-07-24T09:13:33;1.40;;;0.80;;
46230;SDS011;31949;51.404;-0.038;2023-07-24T09:16:02;1.17;;;0.90;;
46230;SDS011;31949;51.404;-0.038;2023-07-24T09:18:42;1.00;;;1.00;;
46230;SDS011;31949;51.404;-0.038;2023-07-24T09:21:10;2.38;;;1.08;;
46230;SDS011;31949;51.404;-0.038;2023-07-24T09:23:40;1.20;;;1.02;;
46230;SDS011;31949;51.404;-0.038;2023-07-24T09:26:07;1.00;;;0.90;;
46230;SDS011;31949;51.404;-0.038;2023-07-24T09:28:35;1.75;;;1.10;;
46230;SDS011;31949;51.404;-0.038;2023-07-24T09:31:03;2.95;;;1.42;;
46230;SDS011;31949;51.404;-0.038;2023-07-24T09:33:38;1.55;;;1.38;;
46230;SDS011;31949;51.404;-0.038;2023-07-24T09:36:09;1.88;;;1.13;;
46230;SDS011;31949;51.404;-0.038;2023-07-24T09:38:37;1.15;;;1.08;;
46230;SDS011;31949;51.404;-0.038;2023-07-24T09:41:05;1.98;;;1.27;;
46230;SDS011;31949;51.404;-0.038;2023-07-24T09:43:33;2.08;;;1.15;;
46230;SDS011;31949;51.404;-0.038;2023-07-24T09:46:07;2.33;;;1.10;;
46230;SDS011;31949;51.404;-0.038;2023-07-24T09:48:36;2.53;;;1.10;;
46230;SDS011;31949;51.404;-0.038;2023-07-24T09:51:08;1.48;;;1.00;;
46230;SDS011;31949;51.404;-0.038;2023-07-24T09:53:52;1.80;;;1.00;;
46230;SDS011;31949;51.404;-0.038;2023-07-24T09:56:22;1.27;;;1.10;;
46230;SDS011;31949;51.404;-0.038;2023-07-24T09:59:11;1.35;;;1.05;;
46230;SDS011;31949;51.404;-0.038;2023-07-24T10:01:40;4.25;;;1.55;;
46230;SDS011;31949;51.404;-0.038;2023-07-24T10:04:09;2.20;;;1.10;;
46230;SDS011;31949;51.404;-0.038;2023-07-24T10:06:37;1.40;;;1.30;;
46230;SDS011;31949;51.404;-0.038;2023-07-24T10:09:04;2.63;;;0.85;;
46230;SDS011;31949;51.404;-0.038;2023-07-24T10:11:34;1.15;;;1.05;;
46230;SDS011;31949;51.404;-0.038;2023-07-24T10:14:01;0.63;;;0.63;;
46230;SDS011;31949;51.404;-0.038;2023-07-24T10:16:29;0.65;;;0.47;;
46230;SDS011;31949;51.404;-0.038;2023-07-24T10:18:56;0.55;;;0.50;;
46230;SDS011;31949;51.404;-0.038;2023-07-24T10:21:27;0.98;;;0.55;;
46230;SDS011;31949;51.404;-0.038;2023-07-24T10:23:59;1.40;;;0.40;;
46230;SDS011;31949;51.404;-0.038;2023-07-24T10:26:27;0.77;;;0.50;;
46230;SDS011;31949;51.404;-0.038;2023-07-24T10:28:54;0.40;;;0.30;;
46230;SDS011;31949;51.404;-0.038;2023-07-24T10:31:23;0.38;;;0.30;;
46230;SDS011;31949;51.404;-0.038;2023-07-24T10:33:54;0.75;;;0.43;;
46230;SDS011;31949;51.404;-0.038;2023-07-24T10:36:23;1.05;;;0.57;;
46230;SDS011;31949;51.404;-0.038;2023-07-24T10:38:54;1.58;;;0.50;;
46230;SDS011;31949;51.404;-0.038;2023-07-24T10:41:23;0.93;;;0.68;;
46230;SDS011;31949;51.404;-0.038;2023-07-24T10:44:02;0.77;;;0.30;;
46230;SDS011;31949;51.404;-0.038;2023-07-24T10:46:36;1.30;;;0.30;;
46230;SDS011;31949;51.404;-0.038;2023-07-24T10:49:05;0.30;;;0.20;;
46230;SDS011;31949;51.404;-0.038;2023-07-24T10:51:34;0.10;;;0.10;;
46230;SDS011;31949;51.404;-0.038;2023-07-24T10:54:04;0.75;;;0.30;;
46230;SDS011;31949;51.404;-0.038;2023-07-24T10:56:32;2.08;;;0.50;;
46230;SDS011;31949;51.404;-0.038;2023-07-24T10:59:05;0.43;;;0.40;;
46230;SDS011;31949;51.404;-0.038;2023-07-24T11:01:33;0.88;;;0.50;;
46230;SDS011;31949;51.404;-0.038;2023-07-24T11:04:01;0.80;;;0.30;;
46230;SDS011;31949;51.404;-0.038;2023-07-24T11:06:29;0.30;;;0.30;;
46230;SDS011;31949;51.404;-0.038;2023-07-24T11:08:57;0.75;;;0.40;;
46230;SDS011;31949;51.404;-0.038;2023-07-24T11:11:29;0.45;;;0.30;;
46230;SDS011;31949;51.404;-0.038;2023-07-24T11:13:59;0.30;;;0.30;;
46230;SDS011;31949;51.404;-0.038;2023-07-24T11:16:28;0.30;;;0.22;;
46230;SDS011;31949;51.404;-0.038;2023-07-24T11:21:27;0.82;;;0.30;;
46230;SDS011;31949;51.404;-0.038;2023-07-24T11:23:57;0.68;;;0.35;;
46230;SDS011;31949;51.404;-0.038;2023-07-24T11:26:25;0.40;;;0.38;;
46230;SDS011;31949;51.404;-0.038;2023-07-24T11:28:53;0.57;;;0.20;;
46230;SDS011;31949;51.404;-0.038;2023-07-24T11:31:21;1.55;;;0.20;;
46230;SDS011;31949;51.404;-0.038;2023-07-24T11:33:49;0.77;;;0.20;;
46230;SDS011;31949;51.404;-0.038;2023-07-24T11:36:17;1.08;;;0.50;;
46230;SDS011;31949;51.404;-0.038;2023-07-24T11:38:48;0.63;;;0.40;;
46230;SDS011;31949;51.404;-0.038;2023-07-24T11:41:16;0.63;;;0.40;;
46230;SDS011;31949;51.404;-0.038;2023-07-24T11:43:45;0.82;;;0.60;;
46230;SDS011;31949;51.404;-0.038;2023-07-24T11:46:27;0.77;;;0.43;;
46230;SDS011;31949;51.404;-0.038;2023-07-24T11:48:57;1.25;;;0.45;;
46230;SDS011;31949;51.404;-0.038;2023-07-24T11:51:25;1.10;;;0.30;;
46230;SDS011;31949;51.404;-0.038;2023-07-24T11:54:08;1.20;;;0.55;;
46230;SDS011;31949;51.404;-0.038;2023-07-24T11:56:38;1.65;;;0.40;;
46230;SDS011;31949;51.404;-0.038;2023-07-24T11:59:09;1.05;;;0.47;;
46230;SDS011;31949;51.404;-0.038;2023-07-24T12:04:05;2.65;;;0.85;;
46230;SDS011;31949;51.404;-0.038;2023-07-24T12:06:33;0.75;;;0.47;;
46230;SDS011;31949;51.404;-0.038;2023-07-24T12:09:03;0.35;;;0.30;;
46230;SDS011;31949;51.404;-0.038;2023-07-24T12:11:32;1.88;;;0.40;;
46230;SDS011;31949;51.404;-0.038;2023-07-24T12:13:59;0.63;;;0.47;;
46230;SDS011;31949;51.404;-0.038;2023-07-24T12:16:27;1.05;;;0.50;;
46230;SDS011;31949;51.404;-0.038;2023-07-24T12:18:55;0.90;;;0.45;;
46230;SDS011;31949;51.404;-0.038;2023-07-24T12:21:22;0.82;;;0.50;;
46230;SDS011;31949;51.404;-0.038;2023-07-24T12:23:49;1.02;;;0.40;;
46230;SDS011;31949;51.404;-0.038;2023-07-24T12:26:16;0.90;;;0.40;;
46230;SDS011;31949;51.404;-0.038;2023-07-24T12:28:44;1.02;;;0.68;;
46230;SDS011;31949;51.404;-0.038;2023-07-24T12:31:11;1.52;;;0.47;;
46230;SDS011;31949;51.404;-0.038;2023-07-24T12:33:38;1.25;;;0.70;;
46230;SDS011;31949;51.404;-0.038;2023-07-24T12:36:05;1.48;;;0.50;;
46230;SDS011;31949;51.404;-0.038;2023-07-24T12:38:32;0.98;;;0.60;;
46230;SDS011;31949;51.404;-0.038;2023-07-24T12:41:00;1.40;;;0.45;;
46230;SDS011;31949;51.404;-0.038;2023-07-24T12:43:27;1.55;;;0.47;;
46230;SDS011;31949;51.404;-0.038;2023-07-24T12:45:54;2.05;;;0.60;;
46230;SDS011;31949;51.404;-0.038;2023-07-24T12:48:21;1.67;;;0.57;;
46230;SDS011;31949;51.404;-0.038;2023-07-24T12:50:49;2.08;;;0.70;;
46230;SDS011;31949;51.404;-0.038;2023-07-24T12:53:16;1.05;;;0.60;;
46230;SDS011;31949;51.404;-0.038;2023-07-24T12:55:51;1.35;;;0.65;;
46230;SDS011;31949;51.404;-0.038;2023-07-24T12:58:19;0.63;;;0.50;;
46230;SDS011;31949;51.404;-0.038;2023-07-24T13:00:46;0.63;;;0.50;;
46230;SDS011;31949;51.404;-0.038;2023-07-24T13:03:14;1.15;;;0.60;;
46230;SDS011;31949;51.404;-0.038;2023-07-24T13:05:41;0.52;;;0.40;;
46230;SDS011;31949;51.404;-0.038;2023-07-24T13:08:09;1.00;;;0.65;;
46230;SDS011;31949;51.404;-0.038;2023-07-24T13:10:36;0.63;;;0.50;;
46230;SDS011;31949;51.404;-0.038;2023-07-24T13:13:03;1.05;;;0.93;;
46230;SDS011;31949;51.404;-0.038;2023-07-24T13:15:30;1.17;;;0.70;;
46230;SDS011;31949;51.404;-0.038;2023-07-24T13:17:58;2.05;;;1.00;;
46230;SDS011;31949;51.404;-0.038;2023-07-24T13:20:43;1.00;;;0.70;;
46230;SDS011;31949;51.404;-0.038;2023-07-24T13:23:10;1.20;;;1.10;;
46230;SDS011;31949;51.404;-0.038;2023-07-24T13:25:38;0.90;;;0.80;;
46230;SDS011;31949;51.404;-0.038;2023-07-24T13:28:05;2.35;;;0.90;;
46230;SDS011;31949;51.404;-0.038;2023-07-24T13:30:32;2.40;;;1.08;;
46230;SDS011;31949;51.404;-0.038;2023-07-24T13:32:59;1.63;;;0.80;;
46230;SDS011;31949;51.404;-0.038;2023-07-24T13:35:27;2.35;;;0.95;;
46230;SDS011;31949;51.404;-0.038;2023-07-24T13:37:54;1.10;;;0.90;;
46230;SDS011;31949;51.404;-0.038;2023-07-24T13:40:21;6.30;;;1.88;;
46230;SDS011;31949;51.404;-0.038;2023-07-24T13:42:48;2.55;;;1.13;;
46230;SDS011;31949;51.404;-0.038;2023-07-24T13:45:16;1.70;;;1.30;;
46230;SDS011;31949;51.404;-0.038;2023-07-24T13:47:43;2.05;;;1.00;;
46230;SDS011;31949;51.404;-0.038;2023-07-24T13:50:10;1.88;;;1.08;;
46230;SDS011;31949;51.404;-0.038;2023-07-24T13:52:37;2.20;;;1.00;;
46230;SDS011;31949;51.404;-0.038;2023-07-24T13:55:05;1.25;;;0.90;;
46230;SDS011;31949;51.404;-0.038;2023-07-24T13:57:32;2.13;;;1.27;;
46230;SDS011;31949;51.404;-0.038;2023-07-24T14:00:00;1.90;;;1.10;;
46230;SDS011;31949;51.404;-0.038;2023-07-24T14:02:46;2.60;;;1.15;;
46230;SDS011;31949;51.404;-0.038;2023-07-24T14:05:13;3.03;;;1.40;;
46230;SDS011;31949;51.404;-0.038;2023-07-24T14:07:42;1.02;;;0.93;;
46230;SDS011;31949;51.404;-0.038;2023-07-24T14:10:09;2.33;;;1.27;;
46230;SDS011;31949;51.404;-0.038;2023-07-24T14:12:37;3.97;;;1.48;;
46230;SDS011;31949;51.404;-0.038;2023-07-24T14:15:04;2.03;;;1.17;;
46230;SDS011;31949;51.404;-0.038;2023-07-24T14:17:32;2.22;;;1.08;;
46230;SDS011;31949;51.404;-0.038;2023-07-24T14:20:02;4.35;;;1.30;;
46230;SDS011;31949;51.404;-0.038;2023-07-24T14:22:30;3.55;;;1.40;;
46230;SDS011;31949;51.404;-0.038;2023-07-24T14:24:57;3.03;;;1.55;;
46230;SDS011;31949;51.404;-0.038;2023-07-24T14:27:24;3.60;;;1.40;;
46230;SDS011;31949;51.404;-0.038;2023-07-24T14:29:52;3.22;;;1.30;;
46230;SDS011;31949;51.404;-0.038;2023-07-24T14:32:19;4.25;;;1.65;;
46230;SDS011;31949;51.404;-0.038;2023-07-24T14:34:50;4.50;;;1.40;;
46230;SDS011;31949;51.404;-0.038;2023-07-24T14:37:19;3.60;;;2.17;;
46230;SDS011;31949;51.404;-0.038;2023-07-24T14:39:46;4.07;;;1.40;;
46230;SDS011;31949;51.404;-0.038;2023-07-24T14:42:13;3.13;;;1.40;;
46230;SDS011;31949;51.404;-0.038;2023-07-24T14:44:41;3.20;;;1.30;;
46230;SDS011;31949;51.404;-0.038;2023-07-24T14:47:08;1.98;;;1.23;;
46230;SDS011;31949;51.404;-0.038;2023-07-24T14:49:36;5.53;;;1.88;;
46230;SDS011;31949;51.404;-0.038;2023-07-24T14:52:03;5.63;;;2.22;;